sensor_id;sensor_type;location;lat;lon;timestamp;P1;durP1;ratioP1;P2;durP2;ratioP2
5042;SDS011;2540;50.928;6.856;2022-09-27T00:00:12;8.57;;;2.40;;
5042;SDS011;2540;50.928;6.856;2022-09-27T00:02:37;5.03;;;2.40;;
5042;SDS011;2540;50.928;6.856;2022-09-27T00:05:03;6.83;;;3.13;;
5042;SDS011;2540;50.928;6.856;2022-09-27T00:07:28;4.60;;;1.63;;
5042;SDS011;2540;50.928;6.856;2022-09-27T00:09:53;8.53;;;2.83;;
5042;SDS011;2540;50.928;6.856;2022-09-27T00:12:18;4.60;;;2.53;;
5042;SDS011;2540;50.928;6.856;2022-09-27T00:14:44;8.63;;;3.80;;
5042;SDS011;2540;50.928;6.856;2022-09-27T00:17:09;7.27;;;3.10;;
5042;SDS011;2540;50.928;6.856;2022-09-27T00:19:34;6.30;;;3.00;;
5042;SDS011;2540;50.928;6.856;2022-09-27T00:21:59;4.40;;;3.17;;
5042;SDS011;2540;50.928;6.856;2022-09-27T00:24:25;7.03;;;3.30;;
5042;SDS011;2540;50.928;6.856;2022-09-27T00:26:50;8.37;;;3.87;;
5042;SDS011;2540;50.928;6.856;2022-09-27T00:29:16;7.17;;;2.83;;
5042;SDS011;2540;50.928;6.856;2022-09-27T00:31:41;8.40;;;2.80;;
5042;SDS011;2540;50.928;6.856;2022-09-27T00:34:09;4.60;;;2.63;;
5042;SDS011;2540;50.928;6.856;2022-09-27T00:36:35;5.30;;;2.20;;
5042;SDS011;2540;50.928;6.856;2022-09-27T00:39:01;6.53;;;2.77;;
5042;SDS011;2540;50.928;6.856;2022-09-27T00:41:27;8.27;;;3.10;;
5042;SDS011;2540;50.928;6.856;2022-09-27T00:43:57;5.27;;;3.00;;
5042;SDS011;2540;50.928;6.856;2022-09-27T00:46:32;6.10;;;3.33;;
5042;SDS011;2540;50.928;6.856;2022-09-27T00:51:27;5.43;;;2.93;;
5042;SDS011;2540;50.928;6.856;2022-09-27T00:53:53;6.33;;;3.27;;
5042;SDS011;2540;50.928;6.856;2022-09-27T00:56:21;6.37;;;3.60;;
5042;SDS011;2540;50.928;6.856;2022-09-27T00:58:49;10.87;;;4.37;;
5042;SDS011;2540;50.928;6.856;2022-09-27T01:01:17;11.20;;;4.70;;
5042;SDS011;2540;50.928;6.856;2022-09-27T01:03:54;9.70;;;4.17;;
5042;SDS011;2540;50.928;6.856;2022-09-27T01:06:21;9.87;;;2.77;;
5042;SDS011;2540;50.928;6.856;2022-09-27T01:08:46;6.00;;;2.63;;
5042;SDS011;2540;50.928;6.856;2022-09-27T01:16:23;3.30;;;2.10;;
5042;SDS011;2540;50.928;6.856;2022-09-27T01:19:40;3.67;;;2.37;;
5042;SDS011;2540;50.928;6.856;2022-09-27T01:21:47;5.33;;;2.20;;
5042;SDS011;2540;50.928;6.856;2022-09-27T01:24:20;6.43;;;2.97;;
5042;SDS011;2540;50.928;6.856;2022-09-27T01:34:22;5.10;;;1.80;;
5042;SDS011;2540;50.928;6.856;2022-09-27T01:44:46;6.10;;;3.87;;
5042;SDS011;2540;50.928;6.856;2022-09-27T01:47:18;8.57;;;4.63;;
5042;SDS011;2540;50.928;6.856;2022-09-27T01:49:46;6.43;;;3.33;;
5042;SDS011;2540;50.928;6.856;2022-09-27T01:52:14;5.30;;;3.70;;
5042;SDS011;2540;50.928;6.856;2022-09-27T01:54:45;15.33;;;5.07;;
5042;SDS011;2540;50.928;6.856;2022-09-27T01:57:12;13.23;;;4.03;;
5042;SDS011;2540;50.928;6.856;2022-09-27T01:59:50;15.83;;;4.00;;
5042;SDS011;2540;50.928;6.856;2022-09-27T02:02:19;12.73;;;4.20;;
5042;SDS011;2540;50.928;6.856;2022-09-27T02:04:46;9.20;;;3.53;;
5042;SDS011;2540;50.928;6.856;2022-09-27T02:07:22;21.40;;;4.10;;
5042;SDS011;2540;50.928;6.856;2022-09-27T02:10:04;9.47;;;4.13;;
5042;SDS011;2540;50.928;6.856;2022-09-27T02:12:34;8.90;;;3.17;;
5042;SDS011;2540;50.928;6.856;2022-09-27T02:15:05;8.70;;;3.77;;
5042;SDS011;2540;50.928;6.856;2022-09-27T02:22:26;5.33;;;3.97;;
5042;SDS011;2540;50.928;6.856;2022-09-27T02:24:59;6.30;;;3.70;;
5042;SDS011;2540;50.928;6.856;2022-09-27T02:27:30;6.07;;;3.13;;
5042;SDS011;2540;50.928;6.856;2022-09-27T02:29:58;11.73;;;3.93;;
5042;SDS011;2540;50.928;6.856;2022-09-27T02:32:25;7.23;;;4.20;;
5042;SDS011;2540;50.928;6.856;2022-09-27T02:34:51;7.60;;;3.90;;
5042;SDS011;2540;50.928;6.856;2022-09-27T02:37:17;9.33;;;3.33;;
5042;SDS011;2540;50.928;6.856;2022-09-27T02:39:42;6.63;;;3.13;;
5042;SDS011;2540;50.928;6.856;2022-09-27T02:42:08;8.80;;;2.90;;
5042;SDS011;2540;50.928;6.856;2022-09-27T02:44:33;9.70;;;3.60;;
5042;SDS011;2540;50.928;6.856;2022-09-27T02:49:42;6.03;;;2.80;;
5042;SDS011;2540;50.928;6.856;2022-09-27T03:00:13;5.00;;;2.80;;
5042;SDS011;2540;50.928;6.856;2022-09-27T03:05:23;6.30;;;2.60;;
5042;SDS011;2540;50.928;6.856;2022-09-27T03:07:49;8.37;;;3.20;;
5042;SDS011;2540;50.928;6.856;2022-09-27T03:10:15;3.70;;;2.40;;
5042;SDS011;2540;50.928;6.856;2022-09-27T03:12:42;5.30;;;2.60;;
5042;SDS011;2540;50.928;6.856;2022-09-27T03:15:08;5.50;;;2.50;;
5042;SDS011;2540;50.928;6.856;2022-09-27T03:17:34;4.80;;;2.40;;
5042;SDS011;2540;50.928;6.856;2022-09-27T03:20:00;7.40;;;2.70;;
5042;SDS011;2540;50.928;6.856;2022-09-27T03:22:25;8.60;;;2.80;;
5042;SDS011;2540;50.928;6.856;2022-09-27T03:24:50;4.50;;;1.87;;
5042;SDS011;2540;50.928;6.856;2022-09-27T03:27:16;1.90;;;1.60;;
5042;SDS011;2540;50.928;6.856;2022-09-27T03:29:41;6.10;;;1.53;;
5042;SDS011;2540;50.928;6.856;2022-09-27T03:32:07;3.87;;;1.73;;
5042;SDS011;2540;50.928;6.856;2022-09-27T03:34:32;3.30;;;1.80;;
5042;SDS011;2540;50.928;6.856;2022-09-27T03:36:57;1.60;;;1.50;;
5042;SDS011;2540;50.928;6.856;2022-09-27T03:39:22;3.03;;;1.83;;
5042;SDS011;2540;50.928;6.856;2022-09-27T03:41:48;5.87;;;1.93;;
5042;SDS011;2540;50.928;6.856;2022-09-27T03:44:13;5.43;;;2.13;;
5042;SDS011;2540;50.928;6.856;2022-09-27T03:46:38;4.90;;;2.40;;
5042;SDS011;2540;50.928;6.856;2022-09-27T03:49:03;2.07;;;1.97;;
5042;SDS011;2540;50.928;6.856;2022-09-27T03:51:29;3.17;;;2.07;;
5042;SDS011;2540;50.928;6.856;2022-09-27T03:53:54;8.43;;;2.30;;
5042;SDS011;2540;50.928;6.856;2022-09-27T03:56:19;4.87;;;2.17;;
5042;SDS011;2540;50.928;6.856;2022-09-27T03:58:44;2.30;;;1.87;;
5042;SDS011;2540;50.928;6.856;2022-09-27T04:01:10;3.77;;;2.20;;
5042;SDS011;2540;50.928;6.856;2022-09-27T04:03:35;3.60;;;2.17;;
5042;SDS011;2540;50.928;6.856;2022-09-27T04:06:00;3.23;;;1.83;;
5042;SDS011;2540;50.928;6.856;2022-09-27T04:08:26;2.53;;;1.67;;
5042;SDS011;2540;50.928;6.856;2022-09-27T04:10:51;3.43;;;1.70;;
5042;SDS011;2540;50.928;6.856;2022-09-27T04:13:16;2.90;;;1.97;;
5042;SDS011;2540;50.928;6.856;2022-09-27T04:15:42;6.53;;;2.10;;
5042;SDS011;2540;50.928;6.856;2022-09-27T04:18:07;4.57;;;2.40;;
5042;SDS011;2540;50.928;6.856;2022-09-27T04:20:33;6.10;;;1.97;;
5042;SDS011;2540;50.928;6.856;2022-09-27T04:22:58;4.63;;;1.80;;
5042;SDS011;2540;50.928;6.856;2022-09-27T04:25:23;2.10;;;1.50;;
5042;SDS011;2540;50.928;6.856;2022-09-27T04:27:48;3.20;;;2.20;;
5042;SDS011;2540;50.928;6.856;2022-09-27T04:30:18;5.53;;;2.57;;
5042;SDS011;2540;50.928;6.856;2022-09-27T04:32:43;5.90;;;3.10;;
5042;SDS011;2540;50.928;6.856;2022-09-27T04:35:09;15.03;;;3.43;;
5042;SDS011;2540;50.928;6.856;2022-09-27T04:37:53;7.37;;;3.60;;
5042;SDS011;2540;50.928;6.856;2022-09-27T04:40:19;8.33;;;3.83;;
5042;SDS011;2540;50.928;6.856;2022-09-27T04:42:46;7.00;;;3.57;;
5042;SDS011;2540;50.928;6.856;2022-09-27T04:45:11;4.37;;;3.07;;
5042;SDS011;2540;50.928;6.856;2022-09-27T04:47:41;5.73;;;3.70;;
5042;SDS011;2540;50.928;6.856;2022-09-27T04:50:06;7.90;;;3.27;;
5042;SDS011;2540;50.928;6.856;2022-09-27T04:52:31;10.10;;;3.20;;
5042;SDS011;2540;50.928;6.856;2022-09-27T04:54:57;5.20;;;3.70;;
5042;SDS011;2540;50.928;6.856;2022-09-27T04:57:22;4.03;;;3.20;;
5042;SDS011;2540;50.928;6.856;2022-09-27T04:59:47;5.77;;;3.07;;
5042;SDS011;2540;50.928;6.856;2022-09-27T05:02:15;11.43;;;3.93;;
5042;SDS011;2540;50.928;6.856;2022-09-27T05:04:40;5.17;;;3.10;;
5042;SDS011;2540;50.928;6.856;2022-09-27T05:07:05;3.53;;;2.87;;
5042;SDS011;2540;50.928;6.856;2022-09-27T05:09:31;3.80;;;3.03;;
5042;SDS011;2540;50.928;6.856;2022-09-27T05:11:56;2.83;;;2.27;;
5042;SDS011;2540;50.928;6.856;2022-09-27T05:14:21;4.73;;;2.50;;
5042;SDS011;2540;50.928;6.856;2022-09-27T05:16:46;4.13;;;3.00;;
5042;SDS011;2540;50.928;6.856;2022-09-27T05:19:12;9.13;;;3.13;;
5042;SDS011;2540;50.928;6.856;2022-09-27T05:21:37;3.80;;;2.70;;
5042;SDS011;2540;50.928;6.856;2022-09-27T05:24:02;7.40;;;2.97;;
5042;SDS011;2540;50.928;6.856;2022-09-27T05:26:27;7.07;;;3.30;;
5042;SDS011;2540;50.928;6.856;2022-09-27T05:28:53;6.30;;;2.80;;
5042;SDS011;2540;50.928;6.856;2022-09-27T05:31:18;3.10;;;2.73;;
5042;SDS011;2540;50.928;6.856;2022-09-27T05:33:43;5.53;;;2.73;;
5042;SDS011;2540;50.928;6.856;2022-09-27T05:36:08;7.67;;;3.03;;
5042;SDS011;2540;50.928;6.856;2022-09-27T05:38:33;7.30;;;2.80;;
5042;SDS011;2540;50.928;6.856;2022-09-27T05:41:00;4.90;;;2.47;;
5042;SDS011;2540;50.928;6.856;2022-09-27T05:43:27;4.87;;;2.43;;
5042;SDS011;2540;50.928;6.856;2022-09-27T05:45:52;4.73;;;2.10;;
5042;SDS011;2540;50.928;6.856;2022-09-27T05:48:18;2.67;;;1.43;;
5042;SDS011;2540;50.928;6.856;2022-09-27T05:50:43;2.47;;;1.83;;
5042;SDS011;2540;50.928;6.856;2022-09-27T05:53:08;12.27;;;1.90;;
5042;SDS011;2540;50.928;6.856;2022-09-27T05:55:34;3.03;;;1.47;;
5042;SDS011;2540;50.928;6.856;2022-09-27T05:58:00;6.43;;;1.80;;
5042;SDS011;2540;50.928;6.856;2022-09-27T06:00:26;2.27;;;1.50;;
5042;SDS011;2540;50.928;6.856;2022-09-27T06:02:55;7.23;;;1.60;;
5042;SDS011;2540;50.928;6.856;2022-09-27T06:05:21;5.10;;;2.10;;
5042;SDS011;2540;50.928;6.856;2022-09-27T06:07:47;6.33;;;2.50;;
5042;SDS011;2540;50.928;6.856;2022-09-27T06:10:13;3.50;;;2.00;;
5042;SDS011;2540;50.928;6.856;2022-09-27T06:12:39;1.87;;;1.77;;
5042;SDS011;2540;50.928;6.856;2022-09-27T06:15:04;4.37;;;2.23;;
5042;SDS011;2540;50.928;6.856;2022-09-27T06:17:32;5.07;;;1.47;;
5042;SDS011;2540;50.928;6.856;2022-09-27T06:19:57;5.23;;;2.90;;
5042;SDS011;2540;50.928;6.856;2022-09-27T06:22:22;3.83;;;2.23;;
5042;SDS011;2540;50.928;6.856;2022-09-27T06:24:48;3.67;;;1.83;;
5042;SDS011;2540;50.928;6.856;2022-09-27T06:27:13;3.73;;;2.10;;
5042;SDS011;2540;50.928;6.856;2022-09-27T06:29:38;3.57;;;1.90;;
5042;SDS011;2540;50.928;6.856;2022-09-27T06:32:03;1.50;;;1.40;;
5042;SDS011;2540;50.928;6.856;2022-09-27T06:34:29;3.67;;;1.70;;
5042;SDS011;2540;50.928;6.856;2022-09-27T06:36:54;8.70;;;1.53;;
5042;SDS011;2540;50.928;6.856;2022-09-27T06:39:21;3.77;;;1.23;;
5042;SDS011;2540;50.928;6.856;2022-09-27T06:41:46;4.67;;;1.67;;
5042;SDS011;2540;50.928;6.856;2022-09-27T06:44:12;3.13;;;1.70;;
5042;SDS011;2540;50.928;6.856;2022-09-27T06:46:38;1.37;;;1.00;;
5042;SDS011;2540;50.928;6.856;2022-09-27T06:49:04;4.67;;;1.43;;
5042;SDS011;2540;50.928;6.856;2022-09-27T06:51:30;10.23;;;1.67;;
5042;SDS011;2540;50.928;6.856;2022-09-27T06:53:55;6.30;;;1.43;;
5042;SDS011;2540;50.928;6.856;2022-09-27T06:56:20;2.40;;;0.90;;
5042;SDS011;2540;50.928;6.856;2022-09-27T06:58:45;4.57;;;1.20;;
5042;SDS011;2540;50.928;6.856;2022-09-27T07:01:29;5.33;;;1.30;;
5042;SDS011;2540;50.928;6.856;2022-09-27T07:03:54;5.57;;;1.40;;
5042;SDS011;2540;50.928;6.856;2022-09-27T07:06:20;2.40;;;1.30;;
5042;SDS011;2540;50.928;6.856;2022-09-27T07:08:52;1.60;;;1.00;;
5042;SDS011;2540;50.928;6.856;2022-09-27T07:11:17;5.03;;;1.37;;
5042;SDS011;2540;50.928;6.856;2022-09-27T07:13:43;4.60;;;1.00;;
5042;SDS011;2540;50.928;6.856;2022-09-27T07:16:12;3.87;;;1.00;;
5042;SDS011;2540;50.928;6.856;2022-09-27T07:18:37;1.20;;;0.70;;
5042;SDS011;2540;50.928;6.856;2022-09-27T07:21:03;4.67;;;1.23;;
5042;SDS011;2540;50.928;6.856;2022-09-27T07:23:28;2.67;;;1.13;;
5042;SDS011;2540;50.928;6.856;2022-09-27T07:25:53;5.03;;;0.80;;
5042;SDS011;2540;50.928;6.856;2022-09-27T07:28:19;1.77;;;0.73;;
5042;SDS011;2540;50.928;6.856;2022-09-27T07:30:44;8.63;;;1.10;;
5042;SDS011;2540;50.928;6.856;2022-09-27T07:33:10;5.30;;;1.37;;
5042;SDS011;2540;50.928;6.856;2022-09-27T07:35:37;0.80;;;0.80;;
5042;SDS011;2540;50.928;6.856;2022-09-27T07:38:04;1.63;;;0.70;;
5042;SDS011;2540;50.928;6.856;2022-09-27T07:40:32;1.43;;;1.00;;
5042;SDS011;2540;50.928;6.856;2022-09-27T07:42:57;4.83;;;1.00;;
5042;SDS011;2540;50.928;6.856;2022-09-27T07:45:23;6.37;;;1.17;;
5042;SDS011;2540;50.928;6.856;2022-09-27T07:47:49;5.40;;;0.87;;
5042;SDS011;2540;50.928;6.856;2022-09-27T07:50:14;3.60;;;0.90;;
5042;SDS011;2540;50.928;6.856;2022-09-27T07:52:43;3.80;;;0.80;;
5042;SDS011;2540;50.928;6.856;2022-09-27T07:55:09;10.40;;;0.97;;
5042;SDS011;2540;50.928;6.856;2022-09-27T07:57:35;1.20;;;0.70;;
5042;SDS011;2540;50.928;6.856;2022-09-27T08:00:00;2.40;;;0.90;;
5042;SDS011;2540;50.928;6.856;2022-09-27T08:02:25;3.23;;;0.83;;
5042;SDS011;2540;50.928;6.856;2022-09-27T08:04:51;3.00;;;1.00;;
5042;SDS011;2540;50.928;6.856;2022-09-27T08:07:17;0.80;;;0.70;;
5042;SDS011;2540;50.928;6.856;2022-09-27T08:09:42;1.37;;;0.90;;
5042;SDS011;2540;50.928;6.856;2022-09-27T08:12:07;2.10;;;0.80;;
5042;SDS011;2540;50.928;6.856;2022-09-27T08:14:33;5.37;;;1.10;;
5042;SDS011;2540;50.928;6.856;2022-09-27T08:16:59;2.10;;;0.90;;
5042;SDS011;2540;50.928;6.856;2022-09-27T08:19:24;5.77;;;0.87;;
5042;SDS011;2540;50.928;6.856;2022-09-27T08:21:50;5.87;;;2.40;;
5042;SDS011;2540;50.928;6.856;2022-09-27T08:24:15;1.87;;;1.00;;
5042;SDS011;2540;50.928;6.856;2022-09-27T08:26:41;4.10;;;0.80;;
5042;SDS011;2540;50.928;6.856;2022-09-27T08:29:06;0.80;;;0.80;;
5042;SDS011;2540;50.928;6.856;2022-09-27T08:31:31;1.07;;;0.90;;
5042;SDS011;2540;50.928;6.856;2022-09-27T08:33:56;1.07;;;0.73;;
5042;SDS011;2540;50.928;6.856;2022-09-27T08:36:22;0.87;;;0.83;;
5042;SDS011;2540;50.928;6.856;2022-09-27T08:38:50;6.03;;;1.27;;
5042;SDS011;2540;50.928;6.856;2022-09-27T08:48:58;1.00;;;0.90;;
5042;SDS011;2540;50.928;6.856;2022-09-27T08:51:27;4.03;;;0.87;;
5042;SDS011;2540;50.928;6.856;2022-09-27T08:53:59;1.17;;;0.90;;
5042;SDS011;2540;50.928;6.856;2022-09-27T08:56:27;1.60;;;0.90;;
5042;SDS011;2540;50.928;6.856;2022-09-27T08:58:56;3.43;;;1.10;;
5042;SDS011;2540;50.928;6.856;2022-09-27T09:01:22;2.50;;;1.10;;
5042;SDS011;2540;50.928;6.856;2022-09-27T09:03:52;1.63;;;0.80;;
5042;SDS011;2540;50.928;6.856;2022-09-27T09:20:18;2.40;;;0.80;;
5042;SDS011;2540;50.928;6.856;2022-09-27T09:22:50;1.67;;;0.90;;
5042;SDS011;2540;50.928;6.856;2022-09-27T09:33:30;1.07;;;0.93;;
5042;SDS011;2540;50.928;6.856;2022-09-27T09:36:01;2.03;;;1.10;;
5042;SDS011;2540;50.928;6.856;2022-09-27T09:41:50;1.80;;;1.57;;
5042;SDS011;2540;50.928;6.856;2022-09-27T09:43:56;1.20;;;1.10;;
5042;SDS011;2540;50.928;6.856;2022-09-27T09:46:24;3.57;;;1.30;;
5042;SDS011;2540;50.928;6.856;2022-09-27T09:48:56;2.10;;;1.27;;
5042;SDS011;2540;50.928;6.856;2022-09-27T09:51:27;5.60;;;1.70;;
5042;SDS011;2540;50.928;6.856;2022-09-27T09:53:55;5.67;;;1.40;;
5042;SDS011;2540;50.928;6.856;2022-09-27T09:56:23;1.93;;;1.10;;
5042;SDS011;2540;50.928;6.856;2022-09-27T09:58:58;1.57;;;1.40;;
5042;SDS011;2540;50.928;6.856;2022-09-27T10:03:52;2.83;;;1.43;;
5042;SDS011;2540;50.928;6.856;2022-09-27T10:06:17;4.50;;;1.17;;
5042;SDS011;2540;50.928;6.856;2022-09-27T10:08:43;1.00;;;1.00;;
5042;SDS011;2540;50.928;6.856;2022-09-27T10:11:16;1.73;;;1.10;;
5042;SDS011;2540;50.928;6.856;2022-09-27T10:13:43;2.60;;;1.30;;
5042;SDS011;2540;50.928;6.856;2022-09-27T10:16:09;3.23;;;1.20;;
5042;SDS011;2540;50.928;6.856;2022-09-27T10:18:38;2.40;;;1.53;;
5042;SDS011;2540;50.928;6.856;2022-09-27T10:21:06;2.07;;;1.30;;
5042;SDS011;2540;50.928;6.856;2022-09-27T10:23:35;2.90;;;0.97;;
5042;SDS011;2540;50.928;6.856;2022-09-27T10:26:02;3.43;;;0.83;;
5042;SDS011;2540;50.928;6.856;2022-09-27T10:28:34;4.13;;;1.60;;
5042;SDS011;2540;50.928;6.856;2022-09-27T10:31:19;1.73;;;1.10;;
5042;SDS011;2540;50.928;6.856;2022-09-27T10:34:01;1.23;;;1.13;;
5042;SDS011;2540;50.928;6.856;2022-09-27T10:36:33;1.73;;;1.03;;
5042;SDS011;2540;50.928;6.856;2022-09-27T10:39:00;1.50;;;1.20;;
5042;SDS011;2540;50.928;6.856;2022-09-27T10:43:51;2.93;;;1.10;;
5042;SDS011;2540;50.928;6.856;2022-09-27T10:46:26;1.43;;;0.80;;
5042;SDS011;2540;50.928;6.856;2022-09-27T10:49:53;1.47;;;1.37;;
5042;SDS011;2540;50.928;6.856;2022-09-27T10:52:00;1.53;;;1.43;;
5042;SDS011;2540;50.928;6.856;2022-09-27T10:59:35;5.33;;;2.00;;
5042;SDS011;2540;50.928;6.856;2022-09-27T11:02:03;1.30;;;1.20;;
5042;SDS011;2540;50.928;6.856;2022-09-27T11:04:33;1.57;;;1.40;;
5042;SDS011;2540;50.928;6.856;2022-09-27T11:07:15;5.87;;;1.43;;
5042;SDS011;2540;50.928;6.856;2022-09-27T11:09:52;3.83;;;1.50;;
5042;SDS011;2540;50.928;6.856;2022-09-27T11:12:18;1.60;;;1.50;;
5042;SDS011;2540;50.928;6.856;2022-09-27T11:14:46;2.53;;;1.67;;
5042;SDS011;2540;50.928;6.856;2022-09-27T11:17:18;1.33;;;1.23;;
5042;SDS011;2540;50.928;6.856;2022-09-27T11:50:45;3.43;;;1.97;;
5042;SDS011;2540;50.928;6.856;2022-09-27T11:58:32;3.33;;;1.10;;
5042;SDS011;2540;50.928;6.856;2022-09-27T12:01:07;2.83;;;1.23;;
5042;SDS011;2540;50.928;6.856;2022-09-27T12:03:50;6.23;;;1.30;;
5042;SDS011;2540;50.928;6.856;2022-09-27T12:06:32;1.93;;;1.40;;
5042;SDS011;2540;50.928;6.856;2022-09-27T12:09:15;4.40;;;1.40;;
5042;SDS011;2540;50.928;6.856;2022-09-27T12:11:45;2.60;;;1.40;;
5042;SDS011;2540;50.928;6.856;2022-09-27T12:14:24;2.40;;;1.10;;
5042;SDS011;2540;50.928;6.856;2022-09-27T12:16:54;1.80;;;1.50;;
5042;SDS011;2540;50.928;6.856;2022-09-27T12:19:22;2.77;;;1.50;;
5042;SDS011;2540;50.928;6.856;2022-09-27T12:21:48;3.23;;;1.90;;
5042;SDS011;2540;50.928;6.856;2022-09-27T12:24:18;2.50;;;1.90;;
5042;SDS011;2540;50.928;6.856;2022-09-27T12:26:44;2.73;;;1.50;;
5042;SDS011;2540;50.928;6.856;2022-09-27T12:29:16;1.70;;;1.10;;
5042;SDS011;2540;50.928;6.856;2022-09-27T12:32:07;2.00;;;1.23;;
5042;SDS011;2540;50.928;6.856;2022-09-27T12:34:31;3.73;;;1.03;;
5042;SDS011;2540;50.928;6.856;2022-09-27T12:37:02;2.70;;;1.30;;
5042;SDS011;2540;50.928;6.856;2022-09-27T12:39:29;1.47;;;1.17;;
5042;SDS011;2540;50.928;6.856;2022-09-27T12:42:00;3.53;;;1.40;;
5042;SDS011;2540;50.928;6.856;2022-09-27T12:44:27;4.17;;;1.73;;
5042;SDS011;2540;50.928;6.856;2022-09-27T12:54:23;2.60;;;1.00;;
5042;SDS011;2540;50.928;6.856;2022-09-27T12:59:38;2.03;;;1.20;;
5042;SDS011;2540;50.928;6.856;2022-09-27T13:04:43;1.50;;;1.00;;
5042;SDS011;2540;50.928;6.856;2022-09-27T13:09:55;3.30;;;0.90;;
5042;SDS011;2540;50.928;6.856;2022-09-27T13:12:23;3.70;;;1.17;;
5042;SDS011;2540;50.928;6.856;2022-09-27T13:17:46;3.33;;;1.75;;
5042;SDS011;2540;50.928;6.856;2022-09-27T13:22:56;3.13;;;1.17;;
5042;SDS011;2540;50.928;6.856;2022-09-27T13:30:52;2.40;;;1.40;;
5042;SDS011;2540;50.928;6.856;2022-09-27T13:36:05;3.27;;;1.17;;
5042;SDS011;2540;50.928;6.856;2022-09-27T13:38:31;3.07;;;1.27;;
5042;SDS011;2540;50.928;6.856;2022-09-27T13:41:12;7.83;;;1.10;;
5042;SDS011;2540;50.928;6.856;2022-09-27T13:46:05;3.70;;;1.13;;
5042;SDS011;2540;50.928;6.856;2022-09-27T13:51:04;3.27;;;1.20;;
5042;SDS011;2540;50.928;6.856;2022-09-27T13:53:36;4.57;;;1.00;;
5042;SDS011;2540;50.928;6.856;2022-09-27T13:56:01;0.97;;;0.87;;
5042;SDS011;2540;50.928;6.856;2022-09-27T14:00:57;2.00;;;0.97;;
5042;SDS011;2540;50.928;6.856;2022-09-27T14:03:36;4.47;;;1.10;;
5042;SDS011;2540;50.928;6.856;2022-09-27T14:09:16;3.73;;;0.77;;
5042;SDS011;2540;50.928;6.856;2022-09-27T14:11:42;3.17;;;0.93;;
5042;SDS011;2540;50.928;6.856;2022-09-27T14:14:16;0.90;;;0.90;;
5042;SDS011;2540;50.928;6.856;2022-09-27T14:16:42;1.67;;;0.90;;
5042;SDS011;2540;50.928;6.856;2022-09-27T14:19:12;1.00;;;0.80;;
5042;SDS011;2540;50.928;6.856;2022-09-27T14:21:40;2.20;;;1.13;;
5042;SDS011;2540;50.928;6.856;2022-09-27T14:27:02;2.63;;;0.83;;
5042;SDS011;2540;50.928;6.856;2022-09-27T14:29:30;2.60;;;0.90;;
5042;SDS011;2540;50.928;6.856;2022-09-27T14:32:02;1.90;;;0.70;;
5042;SDS011;2540;50.928;6.856;2022-09-27T14:34:28;3.73;;;0.80;;
5042;SDS011;2540;50.928;6.856;2022-09-27T14:36:53;7.03;;;0.80;;
5042;SDS011;2540;50.928;6.856;2022-09-27T14:39:37;5.70;;;1.07;;
5042;SDS011;2540;50.928;6.856;2022-09-27T14:42:04;9.20;;;0.90;;
5042;SDS011;2540;50.928;6.856;2022-09-27T14:44:30;2.87;;;1.00;;
5042;SDS011;2540;50.928;6.856;2022-09-27T14:47:06;6.10;;;1.13;;
5042;SDS011;2540;50.928;6.856;2022-09-27T14:49:32;3.90;;;1.27;;
5042;SDS011;2540;50.928;6.856;2022-09-27T14:51:58;4.20;;;0.97;;
5042;SDS011;2540;50.928;6.856;2022-09-27T14:54:24;4.87;;;1.13;;
5042;SDS011;2540;50.928;6.856;2022-09-27T14:56:50;3.90;;;1.20;;
5042;SDS011;2540;50.928;6.856;2022-09-27T14:59:24;5.23;;;1.13;;
5042;SDS011;2540;50.928;6.856;2022-09-27T15:01:52;4.27;;;1.27;;
5042;SDS011;2540;50.928;6.856;2022-09-27T15:04:18;1.37;;;0.80;;
5042;SDS011;2540;50.928;6.856;2022-09-27T15:06:43;3.33;;;1.20;;
5042;SDS011;2540;50.928;6.856;2022-09-27T15:09:09;2.80;;;1.00;;
5042;SDS011;2540;50.928;6.856;2022-09-27T15:11:38;4.10;;;1.33;;
5042;SDS011;2540;50.928;6.856;2022-09-27T15:14:04;3.53;;;1.10;;
5042;SDS011;2540;50.928;6.856;2022-09-27T15:16:29;3.40;;;1.40;;
5042;SDS011;2540;50.928;6.856;2022-09-27T15:19:01;1.37;;;1.27;;
5042;SDS011;2540;50.928;6.856;2022-09-27T15:23:53;2.90;;;0.80;;
5042;SDS011;2540;50.928;6.856;2022-09-27T15:26:23;4.93;;;0.90;;
5042;SDS011;2540;50.928;6.856;2022-09-27T15:28:50;4.30;;;1.57;;
5042;SDS011;2540;50.928;6.856;2022-09-27T15:31:28;2.37;;;0.90;;
5042;SDS011;2540;50.928;6.856;2022-09-27T15:33:54;3.07;;;1.20;;
5042;SDS011;2540;50.928;6.856;2022-09-27T15:36:44;6.60;;;1.00;;
5042;SDS011;2540;50.928;6.856;2022-09-27T15:39:06;4.10;;;0.97;;
5042;SDS011;2540;50.928;6.856;2022-09-27T15:41:57;0.97;;;0.80;;
5042;SDS011;2540;50.928;6.856;2022-09-27T15:44:37;2.80;;;1.07;;
5042;SDS011;2540;50.928;6.856;2022-09-27T15:47:03;2.77;;;0.90;;
5042;SDS011;2540;50.928;6.856;2022-09-27T15:49:29;0.60;;;0.60;;
5042;SDS011;2540;50.928;6.856;2022-09-27T15:51:55;6.93;;;1.33;;
5042;SDS011;2540;50.928;6.856;2022-09-27T15:54:22;2.67;;;1.07;;
5042;SDS011;2540;50.928;6.856;2022-09-27T15:56:48;4.70;;;1.03;;
5042;SDS011;2540;50.928;6.856;2022-09-27T15:59:21;1.70;;;1.33;;
5042;SDS011;2540;50.928;6.856;2022-09-27T16:01:46;3.23;;;0.80;;
5042;SDS011;2540;50.928;6.856;2022-09-27T16:04:11;1.50;;;1.40;;
5042;SDS011;2540;50.928;6.856;2022-09-27T16:06:37;1.33;;;1.23;;
5042;SDS011;2540;50.928;6.856;2022-09-27T16:09:02;3.77;;;1.30;;
5042;SDS011;2540;50.928;6.856;2022-09-27T16:11:27;1.17;;;0.80;;
5042;SDS011;2540;50.928;6.856;2022-09-27T16:13:52;1.70;;;0.93;;
5042;SDS011;2540;50.928;6.856;2022-09-27T16:16:19;10.93;;;1.60;;
5042;SDS011;2540;50.928;6.856;2022-09-27T16:18:45;2.00;;;0.87;;
5042;SDS011;2540;50.928;6.856;2022-09-27T16:21:10;3.20;;;1.20;;
5042;SDS011;2540;50.928;6.856;2022-09-27T16:23:36;1.13;;;0.90;;
5042;SDS011;2540;50.928;6.856;2022-09-27T16:26:01;6.40;;;1.10;;
5042;SDS011;2540;50.928;6.856;2022-09-27T16:28:26;1.97;;;1.30;;
5042;SDS011;2540;50.928;6.856;2022-09-27T16:30:51;2.93;;;1.47;;
5042;SDS011;2540;50.928;6.856;2022-09-27T16:33:17;1.20;;;1.10;;
5042;SDS011;2540;50.928;6.856;2022-09-27T16:35:42;1.43;;;1.30;;
5042;SDS011;2540;50.928;6.856;2022-09-27T16:38:07;5.00;;;1.20;;
5042;SDS011;2540;50.928;6.856;2022-09-27T16:40:32;4.50;;;1.23;;
5042;SDS011;2540;50.928;6.856;2022-09-27T16:42:58;10.33;;;1.20;;
5042;SDS011;2540;50.928;6.856;2022-09-27T16:45:23;4.73;;;1.80;;
5042;SDS011;2540;50.928;6.856;2022-09-27T16:47:56;7.07;;;2.20;;
5042;SDS011;2540;50.928;6.856;2022-09-27T16:50:21;3.40;;;1.47;;
5042;SDS011;2540;50.928;6.856;2022-09-27T16:53:05;6.77;;;1.60;;
5042;SDS011;2540;50.928;6.856;2022-09-27T16:55:30;3.50;;;1.57;;
5042;SDS011;2540;50.928;6.856;2022-09-27T16:57:58;3.07;;;1.33;;
5042;SDS011;2540;50.928;6.856;2022-09-27T17:00:25;2.67;;;1.57;;
5042;SDS011;2540;50.928;6.856;2022-09-27T17:02:50;1.30;;;1.13;;
5042;SDS011;2540;50.928;6.856;2022-09-27T17:05:15;1.30;;;1.20;;
5042;SDS011;2540;50.928;6.856;2022-09-27T17:07:40;1.50;;;1.40;;
5042;SDS011;2540;50.928;6.856;2022-09-27T17:10:06;3.07;;;1.37;;
5042;SDS011;2540;50.928;6.856;2022-09-27T17:12:32;4.50;;;1.63;;
5042;SDS011;2540;50.928;6.856;2022-09-27T17:14:57;1.63;;;1.30;;
5042;SDS011;2540;50.928;6.856;2022-09-27T17:17:22;3.77;;;1.57;;
5042;SDS011;2540;50.928;6.856;2022-09-27T17:19:47;3.50;;;1.10;;
5042;SDS011;2540;50.928;6.856;2022-09-27T17:22:13;3.47;;;1.67;;
5042;SDS011;2540;50.928;6.856;2022-09-27T17:24:38;1.37;;;1.20;;
5042;SDS011;2540;50.928;6.856;2022-09-27T17:27:03;2.53;;;1.30;;
5042;SDS011;2540;50.928;6.856;2022-09-27T17:29:28;2.80;;;1.40;;
5042;SDS011;2540;50.928;6.856;2022-09-27T17:31:54;10.40;;;2.03;;
5042;SDS011;2540;50.928;6.856;2022-09-27T17:34:20;4.40;;;2.10;;
5042;SDS011;2540;50.928;6.856;2022-09-27T17:36:45;3.57;;;1.80;;
5042;SDS011;2540;50.928;6.856;2022-09-27T17:39:15;2.90;;;2.00;;
5042;SDS011;2540;50.928;6.856;2022-09-27T17:41:40;2.60;;;1.63;;
5042;SDS011;2540;50.928;6.856;2022-09-27T17:44:06;7.27;;;1.60;;
5042;SDS011;2540;50.928;6.856;2022-09-27T17:46:35;2.27;;;1.43;;
5042;SDS011;2540;50.928;6.856;2022-09-27T17:49:00;8.33;;;1.90;;
5042;SDS011;2540;50.928;6.856;2022-09-27T17:51:45;6.27;;;1.70;;
5042;SDS011;2540;50.928;6.856;2022-09-27T17:54:10;4.40;;;1.93;;
5042;SDS011;2540;50.928;6.856;2022-09-27T17:56:36;4.60;;;2.03;;
5042;SDS011;2540;50.928;6.856;2022-09-27T17:59:02;3.40;;;1.93;;
5042;SDS011;2540;50.928;6.856;2022-09-27T18:01:27;2.70;;;1.67;;
5042;SDS011;2540;50.928;6.856;2022-09-27T18:03:53;10.60;;;1.97;;